createdAt,value
2023-03-21T00:00:53.711Z,637.00
2023-03-21T00:04:56.524Z,628.00
2023-03-21T00:08:53.669Z,635.00
2023-03-21T00:12:53.653Z,632.00
2023-03-21T00:16:53.821Z,629.00
2023-03-21T00:20:58.623Z,616.00
2023-03-21T00:24:54.523Z,609.00
2023-03-21T00:28:53.485Z,735.00
2023-03-21T00:32:56.817Z,877.00
2023-03-21T00:36:53.415Z,1013.00
2023-03-21T00:40:53.429Z,1187.00
2023-03-21T00:44:53.354Z,1314.00
2023-03-21T00:48:53.318Z,1382.00
2023-03-21T00:52:53.255Z,1448.00
2023-03-21T00:56:53.246Z,1478.00
2023-03-21T01:00:53.228Z,1540.00
2023-03-21T01:04:53.119Z,1558.00
2023-03-21T01:08:53.714Z,1604.00
2023-03-21T01:12:53.078Z,1612.00
2023-03-21T01:16:53.211Z,1640.00
2023-03-21T01:20:53.308Z,1626.00
2023-03-21T01:24:58.599Z,1634.00
2023-03-21T01:28:54.449Z,1629.00
2023-03-21T01:32:53.455Z,1613.00
2023-03-21T01:36:53.502Z,1592.00
2023-03-21T01:40:53.655Z,1588.00
2023-03-21T01:44:53.853Z,1570.00
2023-03-21T01:48:53.850Z,1556.00
2023-03-21T01:52:53.770Z,1565.00
2023-03-21T01:56:53.720Z,1533.00
2023-03-21T02:00:53.839Z,1546.00
2023-03-21T02:04:53.692Z,1555.00
2023-03-21T02:08:53.611Z,1545.00
2023-03-21T02:12:53.605Z,1522.00
2023-03-21T02:16:53.617Z,1476.00
2023-03-21T02:20:53.504Z,1424.00
2023-03-21T02:25:00.408Z,1401.00
2023-03-21T02:28:54.543Z,1402.00
2023-03-21T02:32:53.549Z,1365.00
2023-03-21T02:36:53.771Z,1332.00
2023-03-21T02:40:53.667Z,1304.00
2023-03-21T02:44:53.658Z,1305.00
2023-03-21T02:48:53.632Z,1315.00
2023-03-21T02:52:53.594Z,1351.00
2023-03-21T02:56:53.545Z,1405.00
2023-03-21T03:00:53.544Z,1468.00
2023-03-21T03:04:53.469Z,1494.00
2023-03-21T03:09:02.283Z,1492.00
2023-03-21T03:12:54.421Z,1492.00
2023-03-21T03:16:53.394Z,1446.00
2023-03-21T03:20:53.332Z,1439.00
2023-03-21T03:24:53.293Z,1422.00
2023-03-21T03:28:53.244Z,1398.00
2023-03-21T03:32:53.194Z,1444.00
2023-03-21T03:36:53.246Z,1429.00
2023-03-21T03:40:53.153Z,1429.00
2023-03-21T03:44:53.146Z,1427.00
2023-03-21T03:48:53.179Z,1404.00
2023-03-21T03:52:56.568Z,1393.00
2023-03-21T03:56:53.176Z,1394.00
2023-03-21T04:00:53.091Z,1392.00
2023-03-21T04:04:53.089Z,1381.00
2023-03-21T04:08:53.801Z,1375.00
2023-03-21T04:12:52.997Z,1382.00
2023-03-21T04:16:52.956Z,1370.00
2023-03-21T04:20:52.899Z,1368.00
2023-03-21T04:24:52.878Z,1368.00
2023-03-21T04:28:52.848Z,1383.00
2023-03-21T04:32:52.828Z,1390.00
2023-03-21T04:36:52.743Z,1390.00
2023-03-21T04:40:52.729Z,1366.00
2023-03-21T04:44:52.750Z,1363.00
2023-03-21T04:48:52.805Z,1346.00
2023-03-21T04:52:52.900Z,1354.00
2023-03-21T04:56:52.984Z,1354.00
2023-03-21T05:00:53.281Z,1355.00
2023-03-21T05:04:53.157Z,1365.00
2023-03-21T05:08:53.262Z,1399.00
2023-03-21T05:12:53.350Z,1416.00
2023-03-21T05:16:53.823Z,1408.00
2023-03-21T05:20:53.619Z,1412.00
2023-03-21T05:24:53.759Z,1430.00
2023-03-21T05:28:53.933Z,1432.00
2023-03-21T05:32:54.088Z,1448.00
2023-03-21T05:36:54.213Z,1449.00
2023-03-21T05:40:54.332Z,1449.00
2023-03-21T05:44:54.411Z,1461.00
2023-03-21T05:48:54.537Z,1454.00
2023-03-21T05:52:54.701Z,1508.00
2023-03-21T05:56:54.771Z,1543.00
2023-03-21T06:00:54.886Z,1570.00
2023-03-21T06:04:54.908Z,1608.00
2023-03-21T06:08:54.933Z,1613.00
2023-03-21T06:12:54.960Z,1625.00
2023-03-21T06:16:54.987Z,1623.00
2023-03-21T06:20:55.027Z,1646.00
2023-03-21T06:24:55.055Z,1680.00
2023-03-21T06:28:55.032Z,1685.00
2023-03-21T06:32:55.027Z,1670.00
2023-03-21T06:36:55.058Z,1712.00
2023-03-21T06:40:55.327Z,1840.00
2023-03-21T06:44:55.819Z,2011.00
2023-03-21T06:48:55.823Z,2123.00
2023-03-21T06:52:55.678Z,2227.00
2023-03-21T06:56:55.835Z,2290.00
2023-03-21T07:00:55.889Z,2237.00
2023-03-21T07:04:55.944Z,2218.00
2023-03-21T07:08:56.355Z,2212.00
2023-03-21T07:12:56.235Z,2176.00
2023-03-21T07:16:56.817Z,2131.00
2023-03-21T07:20:56.524Z,2099.00
2023-03-21T07:25:04.754Z,2065.00
2023-03-21T07:28:57.671Z,2046.00
2023-03-21T07:32:56.624Z,2027.00
2023-03-21T07:36:56.621Z,2031.00
2023-03-21T07:40:56.731Z,1998.00
2023-03-21T07:44:56.884Z,1997.00
2023-03-21T07:48:57.341Z,2021.00
2023-03-21T07:52:57.351Z,2284.00
2023-03-21T07:56:57.356Z,2369.00
2023-03-21T08:00:57.470Z,2443.00
2023-03-21T08:04:57.513Z,2540.00
2023-03-21T08:08:57.573Z,2621.00
2023-03-21T08:12:57.574Z,2635.00
2023-03-21T08:16:57.877Z,2709.00
2023-03-21T08:20:57.672Z,2756.00
2023-03-21T08:24:57.649Z,2804.00
2023-03-21T08:28:57.616Z,2846.00
2023-03-21T08:33:00.176Z,2892.00
2023-03-21T08:36:57.519Z,2915.00
2023-03-21T08:40:59.814Z,2934.00
2023-03-21T08:44:57.899Z,3032.00
2023-03-21T08:48:57.887Z,2772.00
2023-03-21T08:52:57.384Z,2958.00
2023-03-21T08:56:57.332Z,3089.00
2023-03-21T09:00:57.370Z,3057.00
2023-03-21T09:04:57.326Z,2970.00
2023-03-21T09:08:57.365Z,2916.00
2023-03-21T09:12:57.297Z,2901.00
2023-03-21T09:16:57.158Z,2889.00
2023-03-21T09:20:57.120Z,2883.00
2023-03-21T09:24:57.128Z,2777.00
2023-03-21T09:28:57.378Z,2743.00
2023-03-21T09:32:57.447Z,2615.00
2023-03-21T09:36:58.433Z,2691.00
2023-03-21T09:40:57.906Z,2601.00
2023-03-21T09:44:58.400Z,2537.00
2023-03-21T09:48:58.003Z,2772.00
2023-03-21T09:52:57.893Z,2916.00
2023-03-21T09:56:57.918Z,2823.00
2023-03-21T10:00:57.789Z,2676.00
2023-03-21T10:04:57.739Z,2499.00
2023-03-21T10:08:57.704Z,2340.00
2023-03-21T10:12:57.686Z,2198.00
2023-03-21T10:16:57.917Z,2121.00
2023-03-21T10:20:57.607Z,2001.00
2023-03-21T10:24:57.546Z,1884.00
2023-03-21T10:28:57.956Z,1755.00
2023-03-21T10:32:59.575Z,1682.00
2023-03-21T10:36:58.737Z,1675.00
2023-03-21T10:40:57.427Z,1651.00
2023-03-21T10:44:57.907Z,1801.00
2023-03-21T10:48:57.959Z,2087.00
2023-03-21T10:52:57.567Z,2187.00
2023-03-21T10:56:57.496Z,2302.00
2023-03-21T11:00:57.504Z,2332.00
2023-03-21T11:04:57.437Z,2400.00
2023-03-21T11:08:57.432Z,2521.00
2023-03-21T11:12:57.348Z,2567.00
2023-03-21T11:16:57.374Z,2598.00
2023-03-21T11:20:57.278Z,2602.00
2023-03-21T11:24:57.241Z,2646.00
2023-03-21T11:28:57.214Z,2513.00
2023-03-21T11:32:57.181Z,2496.00
2023-03-21T11:36:57.434Z,2550.00
2023-03-21T11:40:57.426Z,2257.00
2023-03-21T11:44:57.072Z,2280.00
2023-03-21T11:48:57.041Z,2315.00
2023-03-21T11:52:57.042Z,2253.00
2023-03-21T11:56:56.980Z,2269.00
2023-03-21T12:00:57.099Z,2250.00
2023-03-21T12:04:57.466Z,2259.00
2023-03-21T12:08:57.024Z,2286.00
2023-03-21T12:12:57.005Z,2259.00
2023-03-21T12:16:56.959Z,2258.00
2023-03-21T12:20:56.929Z,2263.00
2023-03-21T12:24:56.889Z,2242.00
2023-03-21T12:28:56.829Z,2225.00
2023-03-21T12:32:56.942Z,2289.00
2023-03-21T12:36:56.944Z,2371.00
2023-03-21T12:40:56.866Z,2348.00
2023-03-21T12:44:56.747Z,2244.00
2023-03-21T12:48:56.976Z,2194.00
2023-03-21T12:52:56.656Z,2159.00
2023-03-21T12:56:56.645Z,1739.00
2023-03-21T13:00:56.635Z,1762.00
2023-03-21T13:04:56.568Z,1605.00
2023-03-21T13:08:56.515Z,1475.00
2023-03-21T13:12:56.602Z,1449.00
2023-03-21T13:16:56.430Z,1330.00
2023-03-21T13:20:56.400Z,1223.00
2023-03-21T13:24:56.466Z,1211.00
2023-03-21T13:28:56.415Z,1202.00
2023-03-21T13:32:56.326Z,1286.00
2023-03-21T13:36:56.371Z,1318.00
2023-03-21T13:40:56.555Z,1238.00
2023-03-21T13:44:57.040Z,1130.00
2023-03-21T13:48:59.118Z,1166.00
2023-03-21T13:52:57.154Z,1141.00
2023-03-21T13:56:58.758Z,1076.00
2023-03-21T14:00:57.486Z,1089.00
2023-03-21T14:05:05.278Z,987.00
2023-03-21T14:08:58.307Z,1015.00
2023-03-21T14:12:57.271Z,967.00
2023-03-21T14:16:57.415Z,922.00
2023-03-21T14:20:57.487Z,953.00
2023-03-21T14:24:57.253Z,936.00
2023-03-21T14:28:57.492Z,946.00
2023-03-21T14:32:57.276Z,909.00
2023-03-21T14:36:58.793Z,916.00
2023-03-21T14:40:57.160Z,930.00
2023-03-21T14:44:57.186Z,869.00
2023-03-21T14:48:57.235Z,808.00
2023-03-21T14:52:57.102Z,805.00
2023-03-21T14:56:57.056Z,801.00
2023-03-21T15:00:57.030Z,781.00
2023-03-21T15:04:57.197Z,800.00
2023-03-21T15:08:57.016Z,749.00
2023-03-21T15:12:57.020Z,836.00
2023-03-21T15:16:56.902Z,862.00
2023-03-21T15:20:56.945Z,852.00
2023-03-21T15:24:57.013Z,830.00
2023-03-21T15:28:56.883Z,823.00
2023-03-21T15:32:56.819Z,854.00
2023-03-21T15:36:56.887Z,879.00
2023-03-21T15:40:56.756Z,889.00
2023-03-21T15:44:56.692Z,894.00
2023-03-21T15:48:56.665Z,871.00
2023-03-21T15:52:56.736Z,906.00
2023-03-21T15:56:56.632Z,817.00
2023-03-21T16:00:56.622Z,818.00
2023-03-21T16:04:56.577Z,714.00
2023-03-21T16:08:56.845Z,818.00
2023-03-21T16:12:56.716Z,802.00
2023-03-21T16:16:56.678Z,801.00
2023-03-21T16:20:56.624Z,894.00
2023-03-21T16:24:56.637Z,826.00
2023-03-21T16:28:56.539Z,681.00
2023-03-21T16:32:56.544Z,747.00
2023-03-21T16:36:56.520Z,789.00
2023-03-21T16:40:56.473Z,825.00
2023-03-21T16:44:56.435Z,776.00
2023-03-21T16:48:56.413Z,763.00
2023-03-21T16:52:56.551Z,827.00
2023-03-21T16:56:56.807Z,845.00
2023-03-21T17:00:57.033Z,878.00
2023-03-21T17:04:57.035Z,842.00
2023-03-21T17:08:57.134Z,818.00
2023-03-21T17:12:57.287Z,827.00
2023-03-21T17:16:57.420Z,849.00
2023-03-21T17:20:57.534Z,816.00
2023-03-21T17:24:57.705Z,787.00
2023-03-21T17:28:57.832Z,770.00
2023-03-21T17:32:58.038Z,762.00
2023-03-21T17:36:58.124Z,738.00
2023-03-21T17:40:58.093Z,672.00
2023-03-21T17:44:58.107Z,663.00
2023-03-21T17:48:58.108Z,664.00
2023-03-21T17:52:58.109Z,696.00
2023-03-21T17:56:58.062Z,723.00
2023-03-21T18:00:58.051Z,720.00
2023-03-21T18:04:58.099Z,663.00
2023-03-21T18:08:59.648Z,784.00
2023-03-21T18:12:58.224Z,754.00
2023-03-21T18:16:58.384Z,730.00
2023-03-21T18:20:59.025Z,663.00
2023-03-21T18:24:58.522Z,658.00
2023-03-21T18:29:47.480Z,701.00
2023-03-21T18:32:59.601Z,744.00
2023-03-21T18:36:58.539Z,833.00
2023-03-21T18:40:58.534Z,905.00
2023-03-21T18:44:58.493Z,947.00
2023-03-21T18:48:58.530Z,992.00
2023-03-21T18:52:58.612Z,967.00
2023-03-21T18:57:35.234Z,931.00
2023-03-21T19:00:59.832Z,939.00
2023-03-21T19:04:58.680Z,950.00
2023-03-21T19:08:59.357Z,945.00
2023-03-21T19:12:58.738Z,936.00
2023-03-21T19:20:59.848Z,917.00
2023-03-21T19:24:58.819Z,787.00
2023-03-21T19:28:58.830Z,711.00
2023-03-21T19:32:59.039Z,655.00
2023-03-21T19:36:59.326Z,642.00
2023-03-21T19:40:59.439Z,663.00
2023-03-21T19:44:59.762Z,715.00
2023-03-21T19:48:59.654Z,755.00
2023-03-21T19:52:59.607Z,762.00
2023-03-21T19:56:59.803Z,709.00
2023-03-21T20:00:59.686Z,663.00
2023-03-21T20:04:59.510Z,649.00
2023-03-21T20:13:00.429Z,646.00
2023-03-21T20:16:59.424Z,645.00
2023-03-21T20:21:01.927Z,644.00
2023-03-21T20:24:59.337Z,646.00
2023-03-21T20:29:27.982Z,624.00
2023-03-21T20:33:00.236Z,617.00
2023-03-21T20:36:59.334Z,602.00
2023-03-21T20:40:59.238Z,583.00
2023-03-21T20:45:00.843Z,567.00
2023-03-21T20:48:59.467Z,546.00
2023-03-21T20:53:07.056Z,512.00
2023-03-21T20:57:00.309Z,507.00
2023-03-21T21:01:06.127Z,537.00
2023-03-21T21:05:24.733Z,561.00
2023-03-21T21:09:00.223Z,590.00
2023-03-21T21:12:59.177Z,655.00
2023-03-21T21:17:02.690Z,681.00
2023-03-21T21:21:00.147Z,704.00
2023-03-21T21:24:59.089Z,734.00
2023-03-21T21:28:59.027Z,790.00
2023-03-21T21:32:59.010Z,792.00
2023-03-21T21:36:58.957Z,777.00
2023-03-21T21:40:58.930Z,793.00
2023-03-21T21:44:58.898Z,786.00
2023-03-21T21:48:58.920Z,794.00
2023-03-21T21:52:58.867Z,788.00
2023-03-21T21:56:58.856Z,749.00
2023-03-21T22:00:58.918Z,747.00
2023-03-21T22:04:58.842Z,720.00
2023-03-21T22:08:58.878Z,726.00
2023-03-21T22:12:58.911Z,709.00
2023-03-21T22:16:58.923Z,735.00
2023-03-21T22:20:58.913Z,720.00
2023-03-21T22:24:59.027Z,709.00
2023-03-21T22:28:59.042Z,729.00
2023-03-21T22:33:08.914Z,728.00
2023-03-21T22:37:00.131Z,732.00
2023-03-21T22:40:59.024Z,764.00
2023-03-21T22:44:58.988Z,760.00
2023-03-21T22:48:58.945Z,763.00
2023-03-21T22:52:58.902Z,704.00
2023-03-21T22:56:58.997Z,659.00
2023-03-21T23:00:59.091Z,623.00
2023-03-21T23:04:59.188Z,603.00
2023-03-21T23:08:59.319Z,587.00
2023-03-21T23:12:59.438Z,533.00
2023-03-21T23:16:59.570Z,509.00
2023-03-21T23:20:59.714Z,500.00
2023-03-21T23:24:59.828Z,503.00
2023-03-21T23:28:59.960Z,520.00
2023-03-21T23:33:00.148Z,554.00
2023-03-21T23:37:00.340Z,589.00
2023-03-21T23:41:01.017Z,612.00
2023-03-21T23:45:00.688Z,652.00
2023-03-21T23:49:00.879Z,684.00
2023-03-21T23:53:01.043Z,691.00
2023-03-21T23:57:01.275Z,696.00
